Time;durP1;ratioP1;P1;durP2;ratioP2;P2;SDS_P1;SDS_P2;PMS_P1;PMS_P2;Temp;Humidity;BMP_temperature;BMP_pressure;BME280_temperature;BME280_humidity;BME280_pressure;Samples;Min_cycle;Max_cycle;Signal;HPM_P1;HPM_P2
2021/06/26 00:39:56;;;;;;;27.70;18.37;;;17.00;97.30;;;;;;6194766;22;20436;-92
2021/06/26 00:42:24;;;;;;;29.37;18.40;;;17.00;97.30;;;;;;6255233;23;20397;-90
2021/06/26 00:44:57;;;;;;;30.90;18.47;;;16.90;97.30;;;;;;6253920;23;20154;-91
2021/06/26 00:47:23;;;;;;;27.07;17.70;;;16.80;97.30;;;;;;6253807;23;20358;-91
2021/06/26 00:49:57;;;;;;;31.93;18.73;;;16.80;97.30;;;;;;6253801;23;20393;-90
2021/06/26 00:52:23;;;;;;;28.70;18.23;;;16.80;97.30;;;;;;6247891;23;20685;-93
2021/06/26 00:57:58;;;;;;;28.80;17.80;;;16.80;97.30;;;;;;6218069;22;20204;-90
2021/06/26 01:13:46;;;;;;;36.00;20.93;;;16.70;97.30;;;;;;6129007;23;20345;-90
2021/06/26 01:20:18;;;;;;;32.73;20.70;;;16.60;97.30;;;;;;5986778;24;20426;-91
2021/06/26 01:23:06;;;;;;;32.43;19.83;;;16.60;97.30;;;;;;5946404;24;20401;-90
2021/06/26 01:25:37;;;;;;;28.57;18.37;;;16.50;97.30;;;;;;5999210;23;20461;-90
2021/06/26 01:28:06;;;;;;;30.43;20.20;;;16.50;97.30;;;;;;5990561;23;20386;-91
2021/06/26 01:30:37;;;;;;;36.53;19.87;;;16.40;97.30;;;;;;5990782;23;20381;-92
2021/06/26 01:33:37;;;;;;;34.67;20.70;;;16.40;97.30;;;;;;5991021;23;20390;-91
2021/06/26 01:36:06;;;;;;;34.20;20.40;;;16.30;97.30;;;;;;6009844;23;20951;-90
2021/06/26 01:39:16;;;;;;;32.27;20.20;;;16.30;97.30;;;;;;6102617;23;20792;-90
2021/06/26 01:42:16;;;;;;;36.43;21.03;;;16.30;97.30;;;;;;6069036;23;20721;-90
2021/06/26 01:44:45;;;;;;;34.33;19.13;;;16.30;97.30;;;;;;6127632;23;20362;-89
2021/06/26 01:47:46;;;;;;;36.40;20.73;;;16.20;97.30;;;;;;6160726;23;20465;-90
2021/06/26 01:54:26;;;;;;;34.13;21.30;;;16.20;97.30;;;;;;6218763;23;20414;-89
2021/06/26 01:57:36;;;;;;;36.07;20.77;;;16.10;97.30;;;;;;6215540;23;20923;-90
2021/06/26 02:03:43;;;;;;;35.30;21.10;;;16.10;97.30;;;;;;6219228;23;20436;-91
2021/06/26 02:06:23;;;;;;;33.60;21.07;;;16.00;97.30;;;;;;6193077;23;20414;-90
2021/06/26 02:09:07;;;;;;;42.10;23.13;;;16.00;97.30;;;;;;6192009;23;20418;-91
2021/06/26 02:11:37;;;;;;;33.20;21.33;;;16.00;97.30;;;;;;6191039;23;20426;-91
2021/06/26 02:14:14;;;;;;;40.67;23.20;;;16.00;97.30;;;;;;6187916;23;20384;-90
2021/06/26 02:17:44;;;;;;;40.30;23.77;;;15.90;97.30;;;;;;6137936;23;20799;-90
2021/06/26 02:20:17;;;;;;;42.80;21.50;;;15.90;97.30;;;;;;6192738;23;20423;-88
2021/06/26 02:23:33;;;;;;;35.13;20.37;;;15.90;97.30;;;;;;6193016;23;20454;-91
2021/06/26 02:26:14;;;;;;;37.93;21.80;;;15.90;97.30;;;;;;6192779;23;20403;-91
2021/06/26 02:29:15;;;;;;;39.60;22.70;;;15.90;97.30;;;;;;6187125;23;20455;-91
2021/06/26 02:51:44;;;;;;;36.00;19.67;;;15.70;97.30;;;;;;6217540;22;20466;-89
2021/06/26 02:54:36;;;;;;;28.33;17.53;;;15.70;97.30;;;;;;6215915;23;20391;-90
2021/06/26 02:57:05;;;;;;;44.33;21.13;;;15.70;97.30;;;;;;6179508;23;20411;-89
2021/06/26 02:59:37;;;;;;;45.00;22.97;;;15.70;97.30;;;;;;6186608;23;20432;-90
2021/06/26 03:02:15;;;;;;;39.50;22.60;;;15.70;97.30;;;;;;6187167;23;20382;-89
2021/06/26 03:04:44;;;;;;;47.70;23.00;;;15.80;97.30;;;;;;6188286;22;20501;-91
2021/06/26 03:07:17;;;;;;;41.23;23.63;;;15.80;97.30;;;;;;6186368;23;20864;-91
2021/06/26 03:09:45;;;;;;;46.10;24.17;;;15.80;97.30;;;;;;6186081;23;20818;-92
2021/06/26 03:12:14;;;;;;;42.73;24.77;;;15.80;97.30;;;;;;6186464;23;20388;-91
2021/06/26 03:14:45;;;;;;;45.60;25.40;;;15.90;97.30;;;;;;6187056;23;20403;-90
2021/06/26 03:17:20;;;;;;;40.23;23.90;;;15.90;97.30;;;;;;6187348;23;20431;-90
2021/06/26 03:19:46;;;;;;;42.73;23.80;;;15.90;97.30;;;;;;6187588;23;20438;-91
2021/06/26 03:22:14;;;;;;;41.80;25.17;;;15.90;97.30;;;;;;6185479;23;20384;-91
2021/06/26 03:24:47;;;;;;;37.87;22.50;;;15.90;97.30;;;;;;6186116;23;20315;-91
2021/06/26 03:27:16;;;;;;;46.67;20.70;;;16.00;97.30;;;;;;6187546;23;20721;-91
2021/06/26 03:29:44;;;;;;;72.27;23.20;;;15.90;97.30;;;;;;6186061;23;20396;-91
2021/06/26 03:32:11;;;;;;;40.73;21.40;;;15.90;97.30;;;;;;6186331;23;20446;-90
2021/06/26 03:34:37;;;;;;;41.80;21.20;;;15.90;97.30;;;;;;6186693;23;20458;-91
2021/06/26 03:37:03;;;;;;;38.60;23.00;;;15.90;97.30;;;;;;6184788;23;20400;-90
2021/06/26 03:39:34;;;;;;;43.20;23.07;;;15.90;97.30;;;;;;6184363;23;20184;-91
2021/06/26 03:42:05;;;;;;;36.40;21.20;;;15.90;97.30;;;;;;6185067;23;20832;-90
2021/06/26 03:44:45;;;;;;;40.53;21.97;;;15.90;97.30;;;;;;6187198;23;20888;-90
2021/06/26 03:51:39;;;;;;;39.13;22.20;;;15.90;97.30;;;;;;6121552;23;20909;-91
2021/06/26 03:59:16;;;;;;;38.10;21.73;;;15.90;97.30;;;;;;6207017;22;20504;-91
2021/06/26 04:08:07;;;;;;;37.43;21.17;;;15.90;97.30;;;;;;6151692;23;20428;-91
2021/06/26 04:17:47;;;;;;;47.43;26.00;;;15.90;97.30;;;;;;6099420;23;21040;-91
2021/06/26 04:20:16;;;;;;;41.63;24.37;;;15.90;97.30;;;;;;6190664;23;20450;-91
2021/06/26 04:22:45;;;;;;;51.30;27.97;;;16.00;97.30;;;;;;6190336;23;20152;-90
2021/06/26 04:25:14;;;;;;;47.23;23.67;;;16.00;97.30;;;;;;6161128;23;20462;-91
2021/06/26 04:27:44;;;;;;;55.43;27.47;;;16.10;97.30;;;;;;6167119;23;20379;-92
2021/06/26 04:30:13;;;;;;;42.80;23.90;;;16.10;97.30;;;;;;6167917;23;20868;-93
2021/06/26 04:32:47;;;;;;;44.47;24.07;;;16.20;97.30;;;;;;6166826;23;20387;-91
2021/06/26 04:35:19;;;;;;;47.23;26.73;;;16.20;97.30;;;;;;6166421;23;20407;-92
2021/06/26 04:37:45;;;;;;;54.13;29.20;;;16.30;97.30;;;;;;6168153;23;20376;-92
2021/06/26 04:40:13;;;;;;;50.67;28.43;;;16.30;97.30;;;;;;6166429;23;20423;-91
2021/06/26 04:42:41;;;;;;;52.93;27.07;;;16.40;97.30;;;;;;6191954;23;20497;-92
2021/06/26 04:45:07;;;;;;;56.03;29.50;;;16.40;97.30;;;;;;6165895;23;20396;-92
2021/06/26 04:47:35;;;;;;;50.97;28.97;;;16.40;97.30;;;;;;6165231;23;20467;-91
2021/06/26 04:50:03;;;;;;;56.40;29.43;;;16.50;97.30;;;;;;6191240;23;20383;-91
2021/06/26 04:52:33;;;;;;;65.07;31.60;;;16.50;97.30;;;;;;6166047;23;20379;-91
2021/06/26 04:55:17;;;;;;;59.93;30.97;;;16.60;97.30;;;;;;6192182;23;20418;-92
2021/06/26 04:57:45;;;;;;;59.30;31.53;;;16.60;97.30;;;;;;6166179;23;20387;-91
2021/06/26 05:00:14;;;;;;;51.17;28.60;;;16.70;97.30;;;;;;6165531;23;20415;-91
2021/06/26 05:02:45;;;;;;;61.30;33.00;;;16.70;97.30;;;;;;6163982;23;20383;-91
2021/06/26 05:05:11;;;;;;;59.70;31.73;;;16.80;97.30;;;;;;6163585;23;20392;-92
2021/06/26 05:07:37;;;;;;;64.33;33.97;;;16.90;97.30;;;;;;6163530;23;20387;-92
2021/06/26 05:10:04;;;;;;;62.27;34.50;;;16.90;97.30;;;;;;6165328;23;20731;-91
2021/06/26 05:12:37;;;;;;;68.57;36.60;;;17.00;97.30;;;;;;6165393;23;20468;-91
2021/06/26 05:21:37;;;;;;;68.30;34.23;;;17.10;97.30;;;;;;6134209;23;20379;-92
2021/06/26 05:25:07;;;;;;;68.30;35.93;;;17.20;97.30;;;;;;6163618;23;20400;-91
2021/06/26 05:28:07;;;;;;;64.93;35.47;;;17.30;97.30;;;;;;5981707;24;20402;-92
2021/06/26 05:30:47;;;;;;;65.07;34.00;;;17.30;97.30;;;;;;5960383;24;20438;-92
2021/06/26 05:33:16;;;;;;;63.30;33.50;;;17.40;97.30;;;;;;5960237;24;20414;-91
2021/06/26 05:35:45;;;;;;;67.50;34.77;;;17.40;97.30;;;;;;5958811;24;20374;-91
2021/06/26 05:38:13;;;;;;;66.77;35.60;;;17.50;97.30;;;;;;6099025;23;20506;-91
2021/06/26 05:40:46;;;;;;;65.97;33.60;;;17.60;97.30;;;;;;6160859;23;20388;-91
2021/06/26 05:43:14;;;;;;;64.33;34.07;;;17.60;97.30;;;;;;6161149;23;20439;-92
2021/06/26 05:45:40;;;;;;;56.40;30.60;;;17.60;97.30;;;;;;6160817;23;20406;-91
2021/06/26 05:48:06;;;;;;;57.60;31.40;;;17.70;97.30;;;;;;6160482;23;20856;-91
2021/06/26 05:50:35;;;;;;;60.07;33.50;;;17.70;97.30;;;;;;6160961;23;20160;-90
2021/06/26 05:53:03;;;;;;;61.67;32.10;;;17.80;97.30;;;;;;6188057;23;20379;-91
2021/06/26 05:55:36;;;;;;;52.00;28.27;;;17.80;97.30;;;;;;6161187;23;20410;-91
2021/06/26 05:58:05;;;;;;;60.77;33.20;;;17.90;97.30;;;;;;6186595;23;20360;-91
2021/06/26 06:00:33;;;;;;;52.93;30.20;;;17.90;97.30;;;;;;6161241;23;20477;-91
2021/06/26 06:03:06;;;;;;;62.47;31.83;;;18.00;97.30;;;;;;6161526;23;20387;-91
2021/06/26 06:05:34;;;;;;;56.23;30.90;;;18.00;97.30;;;;;;6187169;23;20364;-91
2021/06/26 06:08:04;;;;;;;58.03;30.50;;;18.00;97.30;;;;;;6163045;23;20392;-91
2021/06/26 06:10:35;;;;;;;59.30;31.00;;;18.10;97.30;;;;;;6162600;23;20376;-91
2021/06/26 06:13:03;;;;;;;59.37;33.07;;;18.10;97.30;;;;;;6189792;23;20407;-92
2021/06/26 06:15:34;;;;;;;60.03;33.07;;;18.20;97.30;;;;;;6163495;23;20530;-91
2021/06/26 06:18:07;;;;;;;63.13;32.07;;;18.30;97.30;;;;;;6188941;23;20368;-91
2021/06/26 06:20:35;;;;;;;60.40;33.73;;;18.30;97.30;;;;;;6163891;23;20412;-91
2021/06/26 06:23:04;;;;;;;61.47;32.00;;;18.30;97.30;;;;;;6191196;23;20368;-91
2021/06/26 06:25:31;;;;;;;56.13;31.70;;;18.30;97.30;;;;;;6162563;23;20439;-91
2021/06/26 06:27:57;;;;;;;58.23;31.47;;;18.30;97.30;;;;;;6162979;23;20391;-91
2021/06/26 06:30:23;;;;;;;59.30;31.63;;;18.40;97.30;;;;;;6164533;23;20380;-90
2021/06/26 06:32:51;;;;;;;58.97;32.27;;;18.40;97.30;;;;;;6170372;23;20211;-90
2021/06/26 06:35:17;;;;;;;54.20;31.13;;;18.50;97.30;;;;;;6170712;23;20391;-92
2021/06/26 06:37:43;;;;;;;57.03;31.13;;;18.50;97.30;;;;;;6166277;23;20424;-91
2021/06/26 06:40:12;;;;;;;57.00;31.33;;;18.60;97.30;;;;;;6164775;23;20468;-91
2021/06/26 06:42:38;;;;;;;51.70;30.03;;;18.60;97.30;;;;;;6165590;23;20412;-91
2021/06/26 06:45:05;;;;;;;57.97;32.07;;;18.70;97.30;;;;;;6166552;23;20414;-87
2021/06/26 06:47:31;;;;;;;57.63;31.77;;;18.80;97.30;;;;;;6161642;23;20376;-91
2021/06/26 06:49:56;;;;;;;48.90;27.07;;;18.80;97.30;;;;;;6160275;23;20390;-90
2021/06/26 06:52:22;;;;;;;44.13;23.53;;;18.90;97.30;;;;;;6159299;23;20157;-91
2021/06/26 06:54:47;;;;;;;43.90;25.33;;;18.90;97.30;;;;;;6162050;23;20263;-91
2021/06/26 06:57:18;;;;;;;68.27;30.03;;;18.90;97.30;;;;;;6160183;23;20700;-91
2021/06/26 06:59:43;;;;;;;54.93;31.47;;;19.00;97.30;;;;;;6161800;23;20187;-92
2021/06/26 07:02:13;;;;;;;51.27;27.47;;;19.00;97.30;;;;;;6160663;23;20387;-91
2021/06/26 07:04:41;;;;;;;45.67;26.07;;;19.10;97.30;;;;;;6159757;23;20223;-91
2021/06/26 07:07:07;;;;;;;46.83;26.73;;;19.20;97.30;;;;;;6159804;23;20406;-92
2021/06/26 07:09:32;;;;;;;50.77;27.00;;;19.30;97.30;;;;;;6159929;23;20388;-92
2021/06/26 07:12:08;;;;;;;42.90;24.10;;;19.40;97.30;;;;;;6186869;23;20203;-91
2021/06/26 07:14:36;;;;;;;42.63;24.17;;;19.40;97.30;;;;;;6162587;23;20199;-91
2021/06/26 07:17:03;;;;;;;45.77;24.30;;;19.50;97.30;;;;;;6164933;23;20380;-91
2021/06/26 07:19:34;;;;;;;43.10;22.40;;;19.60;97.30;;;;;;6164005;23;20527;-91
2021/06/26 07:22:07;;;;;;;43.63;22.03;;;19.60;97.30;;;;;;6181113;23;20388;-92
2021/06/26 07:24:35;;;;;;;35.93;21.03;;;19.70;97.30;;;;;;6180749;23;20424;-91
2021/06/26 07:27:04;;;;;;;33.43;18.90;;;19.70;97.30;;;;;;6161558;23;20433;-91
2021/06/26 07:29:35;;;;;;;35.67;20.43;;;19.80;97.30;;;;;;6161370;23;20709;-90
2021/06/26 07:32:04;;;;;;;33.80;19.20;;;19.80;97.30;;;;;;6161323;23;20380;-91
2021/06/26 07:34:44;;;;;;;28.80;17.03;;;19.80;97.30;;;;;;6160657;23;20415;-91
2021/06/26 07:37:16;;;;;;;30.53;16.60;;;19.80;97.30;;;;;;6185764;23;20446;-91
2021/06/26 07:39:44;;;;;;;31.77;17.00;;;19.90;97.30;;;;;;6158706;23;20427;-91
2021/06/26 07:42:12;;;;;;;25.50;16.47;;;19.90;97.30;;;;;;6159572;23;20407;-90
2021/06/26 07:44:38;;;;;;;27.73;16.40;;;19.90;97.30;;;;;;6159063;23;20400;-90
2021/06/26 07:47:03;;;;;;;26.07;15.83;;;19.90;97.30;;;;;;6159891;23;20399;-90
2021/06/26 07:49:31;;;;;;;24.90;15.00;;;20.00;97.30;;;;;;6158931;23;20400;-91
2021/06/26 07:51:57;;;;;;;21.90;14.73;;;20.00;97.30;;;;;;6159471;23;20219;-91
2021/06/26 07:54:22;;;;;;;18.53;12.53;;;20.00;97.30;;;;;;6166787;23;20411;-91
2021/06/26 07:56:51;;;;;;;18.07;10.90;;;20.00;97.30;;;;;;6163118;23;20680;-90
2021/06/26 07:59:16;;;;;;;26.80;12.73;;;20.00;97.30;;;;;;6160407;23;20640;-90
2021/06/26 08:01:44;;;;;;;16.73;11.00;;;20.00;97.30;;;;;;6162524;23;20376;-90
2021/06/26 08:04:10;;;;;;;19.50;11.57;;;20.00;97.30;;;;;;6162796;23;20176;-91
2021/06/26 08:06:35;;;;;;;15.80;10.40;;;20.00;97.30;;;;;;6163255;23;20404;-90
2021/06/26 08:09:03;;;;;;;20.30;12.90;;;20.00;97.30;;;;;;6162671;23;20161;-91
2021/06/26 08:11:34;;;;;;;18.60;12.10;;;20.10;97.30;;;;;;6163706;23;20483;-90
2021/06/26 08:14:00;;;;;;;16.97;11.57;;;20.10;97.30;;;;;;6162091;23;20433;-90
2021/06/26 08:16:26;;;;;;;19.73;13.00;;;20.10;97.30;;;;;;6163709;23;20391;-90
2021/06/26 08:18:53;;;;;;;23.83;13.37;;;20.20;97.30;;;;;;6164148;23;20223;-90
2021/06/26 08:21:27;;;;;;;19.73;13.43;;;20.40;97.30;;;;;;6189058;23;20403;-91
2021/06/26 08:23:55;;;;;;;21.90;13.80;;;20.50;97.30;;;;;;6163931;23;20404;-90
2021/06/26 08:26:20;;;;;;;21.40;14.20;;;20.60;97.30;;;;;;6164103;23;20414;-90
2021/06/26 08:28:46;;;;;;;26.80;14.57;;;20.80;97.30;;;;;;6163666;23;20411;-90
2021/06/26 08:31:15;;;;;;;20.20;14.77;;;20.90;97.30;;;;;;6163414;23;20169;-90
2021/06/26 08:33:45;;;;;;;20.40;14.10;;;21.10;97.30;;;;;;6163043;23;20520;-90
2021/06/26 08:36:13;;;;;;;22.60;13.13;;;21.20;97.30;;;;;;6164135;23;20383;-90
2021/06/26 08:38:40;;;;;;;19.30;12.77;;;21.30;97.30;;;;;;6163472;23;20387;-91
2021/06/26 08:41:07;;;;;;;19.77;13.13;;;21.40;97.00;;;;;;6163323;23;20414;-90
2021/06/26 08:43:34;;;;;;;22.10;12.93;;;21.50;97.10;;;;;;6167010;23;20415;-91
2021/06/26 08:46:03;;;;;;;23.23;11.53;;;21.60;97.30;;;;;;6188753;23;20376;-90
2021/06/26 08:48:33;;;;;;;19.83;12.03;;;21.50;96.50;;;;;;6161243;23;20383;-90
2021/06/26 08:51:01;;;;;;;20.37;13.27;;;21.50;97.20;;;;;;6162011;23;20380;-90
2021/06/26 08:53:27;;;;;;;24.10;12.43;;;21.50;96.00;;;;;;6161925;23;20435;-91
2021/06/26 08:55:55;;;;;;;20.80;13.17;;;21.50;96.30;;;;;;6161957;23;20435;-86
2021/06/26 08:58:23;;;;;;;18.07;12.17;;;21.40;96.90;;;;;;6162090;23;20175;-91
2021/06/26 09:00:57;;;;;;;21.93;12.37;;;21.30;96.40;;;;;;6163774;23;20439;-90
2021/06/26 09:03:25;;;;;;;18.57;12.53;;;21.30;96.30;;;;;;6165247;23;20478;-90
2021/06/26 09:05:50;;;;;;;17.87;11.70;;;21.30;96.60;;;;;;6164874;23;20396;-90
2021/06/26 09:08:18;;;;;;;20.50;13.50;;;21.30;97.30;;;;;;6163746;23;20392;-90
2021/06/26 09:10:47;;;;;;;22.07;12.07;;;21.20;97.30;;;;;;6163872;23;20183;-90
2021/06/26 09:13:16;;;;;;;15.90;11.67;;;21.20;97.30;;;;;;6163450;23;20458;-91
2021/06/26 09:15:44;;;;;;;16.40;12.17;;;21.30;97.20;;;;;;6164363;23;20446;-89
2021/06/26 09:18:17;;;;;;;14.67;11.60;;;21.40;96.90;;;;;;6162011;23;20375;-90
2021/06/26 09:20:48;;;;;;;17.30;11.30;;;21.60;97.30;;;;;;6162626;23;20454;-90
2021/06/26 09:23:27;;;;;;;17.80;11.13;;;21.70;95.10;;;;;;6162507;23;20896;-90
2021/06/26 09:26:08;;;;;;;18.60;11.90;;;21.90;95.80;;;;;;6161794;23;20376;-90
2021/06/26 09:28:34;;;;;;;21.00;11.33;;;22.00;94.70;;;;;;6189302;23;20368;-90
2021/06/26 09:31:06;;;;;;;17.37;11.80;;;22.10;91.80;;;;;;6162431;23;20384;-90
2021/06/26 09:33:34;;;;;;;15.93;11.47;;;22.10;92.10;;;;;;6162630;23;20189;-91
2021/06/26 09:36:10;;;;;;;16.73;10.33;;;22.20;93.00;;;;;;6163170;23;20488;-91
2021/06/26 09:38:54;;;;;;;19.33;11.27;;;22.40;94.10;;;;;;6161494;23;20840;-90
2021/06/26 09:41:20;;;;;;;16.17;10.70;;;22.50;90.80;;;;;;6163817;23;20376;-91
2021/06/26 09:43:45;;;;;;;13.80;10.60;;;22.60;90.70;;;;;;6163258;23;20400;-90
2021/06/26 09:46:13;;;;;;;14.67;10.50;;;22.60;90.40;;;;;;6163177;23;20580;-91
2021/06/26 09:48:53;;;;;;;14.33;9.70;;;22.70;91.00;;;;;;6161925;23;20161;-89
2021/06/26 09:51:21;;;;;;;16.20;10.63;;;22.90;92.40;;;;;;6161436;23;20384;-90
2021/06/26 09:53:55;;;;;;;16.27;10.73;;;23.00;91.10;;;;;;6135840;23;20487;-89
2021/06/26 09:56:21;;;;;;;16.40;11.03;;;23.00;88.80;;;;;;6186512;23;20411;-89
2021/06/26 09:58:53;;;;;;;15.50;11.23;;;23.10;91.10;;;;;;6159551;23;20451;-90
2021/06/26 10:01:22;;;;;;;19.73;10.60;;;23.10;91.80;;;;;;6160053;23;20734;-91
2021/06/26 10:03:52;;;;;;;18.03;11.87;;;23.10;92.60;;;;;;6159617;23;20411;-89
2021/06/26 10:06:20;;;;;;;15.50;10.97;;;23.00;92.10;;;;;;6186197;23;20911;-90
2021/06/26 10:08:45;;;;;;;14.37;11.20;;;22.90;92.60;;;;;;6159274;23;20415;-91
2021/06/26 10:11:14;;;;;;;16.27;10.40;;;22.80;92.20;;;;;;6159062;23;20388;-89
2021/06/26 10:13:43;;;;;;;15.03;11.07;;;22.90;93.10;;;;;;6185438;23;20169;-89
2021/06/26 10:16:13;;;;;;;15.30;10.20;;;23.10;91.80;;;;;;6159265;23;20443;-89
2021/06/26 10:18:45;;;;;;;15.10;11.00;;;23.30;91.50;;;;;;6158478;23;20396;-90
2021/06/26 10:21:11;;;;;;;16.60;10.90;;;23.40;89.70;;;;;;6160035;23;20462;-90
2021/06/26 10:23:37;;;;;;;14.50;9.97;;;23.50;90.10;;;;;;6159901;23;20407;-90
2021/06/26 10:26:03;;;;;;;17.43;10.17;;;23.60;89.90;;;;;;6159165;23;20383;-90
2021/06/26 10:28:45;;;;;;;11.40;8.83;;;23.70;91.00;;;;;;6160585;23;20236;-90
2021/06/26 10:31:14;;;;;;;11.70;8.60;;;23.80;87.50;;;;;;6159011;23;20845;-89
2021/06/26 10:33:47;;;;;;;12.00;10.00;;;23.90;86.50;;;;;;6158974;23;20444;-90
2021/06/26 10:36:15;;;;;;;14.53;10.10;;;24.00;88.20;;;;;;6159029;23;20380;-90
2021/06/26 10:38:44;;;;;;;13.30;8.40;;;24.20;90.40;;;;;;6158435;23;20433;-90
2021/06/26 10:41:21;;;;;;;13.30;10.13;;;24.30;88.00;;;;;;6159544;23;20380;-89
2021/06/26 10:43:59;;;;;;;13.17;9.50;;;24.40;85.90;;;;;;6158902;23;20882;-89
2021/06/26 10:46:25;;;;;;;15.60;10.10;;;24.40;84.90;;;;;;6159000;23;20771;-90
2021/06/26 10:49:06;;;;;;;16.83;10.73;;;24.30;85.50;;;;;;6184374;23;20380;-90
2021/06/26 10:51:34;;;;;;;13.37;10.07;;;24.20;87.10;;;;;;6186045;23;20133;-89
2021/06/26 10:54:16;;;;;;;13.67;10.43;;;24.00;88.90;;;;;;6160026;23;20407;-90
2021/06/26 10:56:48;;;;;;;14.00;10.60;;;23.80;88.60;;;;;;6160116;23;20395;-89
2021/06/26 11:00:18;;;;;;;13.50;10.43;;;23.70;88.90;;;;;;6185884;23;20477;-90
2021/06/26 11:03:47;;;;;;;16.03;10.47;;;23.60;90.50;;;;;;6047624;23;20406;-88
2021/06/26 11:06:37;;;;;;;12.80;10.00;;;23.40;89.40;;;;;;5951656;24;20465;-90
2021/06/26 11:09:38;;;;;;;11.87;8.83;;;23.40;89.40;;;;;;5929882;24;20463;-90
2021/06/26 11:12:37;;;;;;;15.57;9.83;;;23.30;90.50;;;;;;5925919;24;20410;-91
2021/06/26 11:15:07;;;;;;;17.63;11.03;;;23.20;90.20;;;;;;5900726;24;20500;-90
2021/06/26 11:18:16;;;;;;;15.10;10.63;;;23.20;90.30;;;;;;5901960;24;20392;-90
2021/06/26 11:20:47;;;;;;;11.70;9.33;;;23.20;90.20;;;;;;5852420;24;20763;-91
2021/06/26 11:23:18;;;;;;;17.50;10.00;;;23.10;90.20;;;;;;5982945;22;20439;-83
2021/06/26 11:25:46;;;;;;;12.97;9.00;;;23.10;91.00;;;;;;6220583;23;20394;-82
2021/06/26 11:28:18;;;;;;;12.97;9.50;;;23.20;91.30;;;;;;6219101;23;20523;-82
2021/06/26 11:31:07;;;;;;;14.20;9.63;;;23.40;91.10;;;;;;6218772;23;20406;-82
2021/06/26 11:33:37;;;;;;;14.03;10.37;;;23.60;89.80;;;;;;6219710;23;20377;-83
2021/06/26 11:36:16;;;;;;;12.67;9.17;;;23.90;94.40;;;;;;6219097;23;20737;-83
2021/06/26 11:38:56;;;;;;;12.60;9.87;;;24.20;94.50;;;;;;6218174;23;20375;-83
2021/06/26 11:41:37;;;;;;;14.77;9.40;;;24.50;89.80;;;;;;6216785;23;20482;-83
2021/06/26 11:44:07;;;;;;;13.27;9.50;;;24.70;90.60;;;;;;6216852;23;20383;-84
2021/06/26 11:46:36;;;;;;;12.97;8.70;;;25.00;88.50;;;;;;6217141;23;20375;-83
2021/06/26 11:49:07;;;;;;;14.43;8.60;;;24.90;86.10;;;;;;6218123;23;20411;-83
2021/06/26 11:51:34;;;;;;;12.33;8.73;;;24.80;85.80;;;;;;6216933;23;20402;-83
2021/06/26 11:54:07;;;;;;;14.03;9.13;;;24.60;86.60;;;;;;6217307;23;20791;-83
2021/06/26 11:56:37;;;;;;;12.53;8.70;;;24.30;86.40;;;;;;6218393;23;20368;-83
2021/06/26 11:59:05;;;;;;;13.77;8.67;;;24.20;87.60;;;;;;6217191;23;20410;-83
2021/06/26 12:01:38;;;;;;;13.90;9.07;;;24.00;87.10;;;;;;6215656;23;20445;-83
2021/06/26 12:04:06;;;;;;;12.33;8.93;;;23.90;85.90;;;;;;6216579;23;20383;-83
2021/06/26 12:06:46;;;;;;;12.10;8.30;;;23.80;87.60;;;;;;6218324;23;20390;-82
2021/06/26 12:09:26;;;;;;;12.07;8.53;;;23.80;86.30;;;;;;6218322;23;20410;-83
2021/06/26 12:12:07;;;;;;;11.57;9.00;;;23.80;87.40;;;;;;6217544;23;20460;-82
2021/06/26 12:14:37;;;;;;;9.90;8.20;;;23.70;86.60;;;;;;6216934;23;20387;-82
2021/06/26 12:17:16;;;;;;;12.53;9.23;;;23.70;87.00;;;;;;6220212;23;20479;-83
2021/06/26 12:19:45;;;;;;;13.93;8.60;;;23.90;89.30;;;;;;6217638;23;20472;-83
2021/06/26 12:22:24;;;;;;;9.63;7.77;;;24.20;91.50;;;;;;6216395;23;20907;-83
2021/06/26 12:24:49;;;;;;;14.03;8.60;;;24.50;91.10;;;;;;6215727;23;20418;-83
2021/06/26 12:27:17;;;;;;;11.83;7.83;;;24.70;87.00;;;;;;6215044;23;20813;-83
2021/06/26 12:29:52;;;;;;;10.93;7.50;;;24.90;85.70;;;;;;6215083;23;20189;-83
2021/06/26 12:32:25;;;;;;;13.00;8.67;;;25.00;88.20;;;;;;6214312;23;20410;-83
2021/06/26 12:34:51;;;;;;;12.13;8.53;;;25.30;87.50;;;;;;6217189;23;20386;-83
2021/06/26 12:37:33;;;;;;;11.90;7.67;;;25.40;86.50;;;;;;6214822;23;21173;-83
2021/06/26 12:40:17;;;;;;;10.30;7.30;;;25.40;84.30;;;;;;6215028;23;20167;-84
2021/06/26 12:42:59;;;;;;;9.33;7.47;;;25.50;82.50;;;;;;6215000;23;20390;-83
2021/06/26 12:45:34;;;;;;;13.17;8.20;;;25.60;84.70;;;;;;6214023;23;20386;-83
2021/06/26 12:48:25;;;;;;;12.63;8.20;;;25.70;84.50;;;;;;6215485;23;20701;-84
2021/06/26 12:50:50;;;;;;;12.10;8.87;;;25.80;84.30;;;;;;6214633;23;20407;-83
2021/06/26 12:53:17;;;;;;;15.27;9.37;;;25.80;81.70;;;;;;6214753;23;20462;-84
2021/06/26 12:55:51;;;;;;;10.33;7.93;;;25.90;83.40;;;;;;6216039;23;20234;-84
2021/06/26 12:58:17;;;;;;;15.13;9.13;;;26.00;85.20;;;;;;6214681;23;20410;-84
2021/06/26 13:00:53;;;;;;;12.17;9.23;;;26.10;83.80;;;;;;6213644;23;20442;-84
2021/06/26 13:03:19;;;;;;;15.00;8.87;;;26.20;83.00;;;;;;6214443;23;20235;-84
2021/06/26 13:05:44;;;;;;;9.10;7.77;;;26.30;83.80;;;;;;6214829;23;20398;-84
2021/06/26 13:08:10;;;;;;;10.13;8.13;;;26.30;86.10;;;;;;6214357;23;20148;-84
2021/06/26 13:10:48;;;;;;;11.90;7.50;;;26.30;82.90;;;;;;6213649;23;20175;-84
2021/06/26 13:13:13;;;;;;;8.13;6.40;;;26.00;81.50;;;;;;6214263;23;20222;-84
2021/06/26 13:15:39;;;;;;;11.93;8.23;;;25.70;80.40;;;;;;6214813;23;20399;-84
2021/06/26 13:18:04;;;;;;;9.73;8.13;;;25.60;81.60;;;;;;6215272;23;20156;-84
2021/06/26 13:20:31;;;;;;;10.40;7.90;;;25.50;81.60;;;;;;6213836;23;20237;-83
2021/06/26 13:22:57;;;;;;;10.07;7.80;;;25.60;82.80;;;;;;6214596;23;20540;-84
2021/06/26 13:25:22;;;;;;;9.03;7.80;;;25.80;82.00;;;;;;6215619;23;20379;-84
2021/06/26 13:27:48;;;;;;;11.67;7.70;;;25.90;80.90;;;;;;6214526;23;20617;-84
2021/06/26 13:30:16;;;;;;;9.67;7.37;;;26.10;81.50;;;;;;6214205;23;20167;-84
2021/06/26 13:32:43;;;;;;;9.17;7.60;;;26.20;81.90;;;;;;6216163;23;20144;-83
2021/06/26 13:35:09;;;;;;;7.50;6.90;;;26.30;80.30;;;;;;6215694;23;20379;-83
2021/06/26 13:37:35;;;;;;;9.60;8.37;;;26.50;80.90;;;;;;6215292;23;20375;-83
2021/06/26 13:40:01;;;;;;;9.77;7.50;;;26.70;82.30;;;;;;6215428;23;20451;-84
2021/06/26 13:42:27;;;;;;;9.77;8.03;;;27.00;80.90;;;;;;6216118;23;20179;-83
2021/06/26 13:44:52;;;;;;;8.20;7.13;;;27.20;81.50;;;;;;6216538;23;20387;-83
2021/06/26 13:47:18;;;;;;;8.80;7.53;;;27.30;80.30;;;;;;6215136;23;20152;-84
2021/06/26 13:49:43;;;;;;;7.73;7.23;;;27.30;79.70;;;;;;6215333;23;20175;-84
2021/06/26 13:52:09;;;;;;;8.90;8.47;;;27.40;79.80;;;;;;6214867;23;20550;-85
2021/06/26 13:54:35;;;;;;;8.37;7.50;;;27.30;79.10;;;;;;6214663;23;20156;-84
2021/06/26 13:57:01;;;;;;;11.33;7.70;;;27.20;79.30;;;;;;6214813;23;20226;-84
2021/06/26 13:59:26;;;;;;;10.00;8.00;;;27.10;78.20;;;;;;6213682;23;20186;-84
2021/06/26 14:01:52;;;;;;;10.27;8.20;;;26.70;77.90;;;;;;6213454;23;20884;-84
2021/06/26 14:04:18;;;;;;;9.90;8.40;;;26.40;79.30;;;;;;6215075;23;20191;-83
2021/06/26 14:06:43;;;;;;;9.37;7.57;;;26.20;78.80;;;;;;6215024;23;20152;-84
2021/06/26 14:09:09;;;;;;;10.70;7.80;;;25.90;80.00;;;;;;6214053;23;20160;-83
2021/06/26 14:11:35;;;;;;;9.30;7.37;;;25.80;81.00;;;;;;6213050;23;20176;-83
2021/06/26 14:14:01;;;;;;;10.03;8.30;;;25.60;81.00;;;;;;6214419;23;20160;-82
2021/06/26 14:16:27;;;;;;;9.47;8.20;;;25.60;81.30;;;;;;6213837;23;20379;-83
2021/06/26 14:18:53;;;;;;;9.43;8.53;;;25.70;80.20;;;;;;6212600;23;20764;-83
2021/06/26 14:21:19;;;;;;;9.30;7.70;;;25.80;81.10;;;;;;6212674;23;20180;-83
2021/06/26 14:23:45;;;;;;;9.53;7.30;;;26.10;83.10;;;;;;6213776;23;20434;-82
2021/06/26 14:26:11;;;;;;;8.10;7.60;;;26.40;81.90;;;;;;6213855;23;20151;-83
2021/06/26 14:28:37;;;;;;;10.83;7.27;;;26.70;79.80;;;;;;6212556;23;20892;-83
2021/06/26 14:31:03;;;;;;;12.17;8.00;;;26.90;80.60;;;;;;6213362;23;20257;-83
2021/06/26 14:33:29;;;;;;;7.90;7.17;;;27.00;78.10;;;;;;6214147;23;20379;-82
2021/06/26 14:35:55;;;;;;;9.73;7.93;;;27.20;77.70;;;;;;6213325;23;20931;-82
2021/06/26 14:38:20;;;;;;;9.50;7.90;;;27.30;79.00;;;;;;6211848;23;20238;-83
2021/06/26 14:40:46;;;;;;;14.47;7.80;;;27.40;76.80;;;;;;6212441;23;20500;-83
2021/06/26 14:43:12;;;;;;;9.13;7.20;;;27.20;76.90;;;;;;6216576;23;20651;-83
2021/06/26 14:45:37;;;;;;;7.83;7.40;;;27.00;76.40;;;;;;6214169;23;20156;-82
2021/06/26 14:48:04;;;;;;;7.57;7.20;;;26.80;77.60;;;;;;6213134;23;20585;-82
2021/06/26 14:50:30;;;;;;;10.40;8.20;;;26.60;77.40;;;;;;6211953;23;20625;-82